Time;durP1;ratioP1;P1;durP2;ratioP2;P2;SDS_P1;SDS_P2;PMS_P1;PMS_P2;Temp;Humidity;BMP_temperature;BMP_pressure;BME280_temperature;BME280_humidity;BME280_pressure;Samples;Min_cycle;Max_cycle;Signal;HPM_P1;HPM_P2
2022/04/22 00:01:17;;;;;;;24.73;20.40;;;9.70;99.90;;;;;;5069988;28;20644;-64
2022/04/22 00:03:43;;;;;;;25.23;19.47;;;9.60;99.90;;;;;;5067680;28;20220;-64
2022/04/22 00:06:10;;;;;;;25.20;19.67;;;9.50;99.90;;;;;;5069762;28;20436;-64
2022/04/22 00:08:35;;;;;;;27.13;21.30;;;9.40;99.90;;;;;;5069514;28;20463;-60
2022/04/22 00:13:45;;;;;;;25.90;19.50;;;9.20;99.90;;;;;;5069755;28;20542;-64
2022/04/22 00:16:11;;;;;;;31.40;21.17;;;9.20;99.90;;;;;;5069427;28;20433;-64
2022/04/22 00:18:37;;;;;;;29.00;22.37;;;9.00;99.90;;;;;;5066210;28;20182;-64
2022/04/22 00:21:03;;;;;;;27.43;20.40;;;8.90;99.90;;;;;;5068845;28;20446;-62
2022/04/22 00:23:29;;;;;;;32.47;21.10;;;8.90;99.90;;;;;;5069440;28;20436;-64
2022/04/22 00:25:55;;;;;;;30.13;22.80;;;8.80;99.90;;;;;;5068393;28;20451;-60
2022/04/22 00:28:22;;;;;;;28.57;21.83;;;8.80;99.90;;;;;;5066750;28;20201;-61
2022/04/22 00:30:47;;;;;;;33.77;23.50;;;8.80;99.90;;;;;;5068857;28;20766;-64
2022/04/22 00:33:14;;;;;;;32.27;23.50;;;8.80;99.90;;;;;;5070145;28;20430;-58
2022/04/22 00:35:40;;;;;;;32.83;23.47;;;8.80;99.90;;;;;;5068774;28;20273;-65
2022/04/22 00:38:06;;;;;;;28.30;21.70;;;8.80;99.90;;;;;;5067823;28;20439;-64
2022/04/22 00:40:32;;;;;;;34.47;24.27;;;8.70;99.90;;;;;;5069272;28;20451;-64
2022/04/22 00:42:59;;;;;;;30.80;22.50;;;8.70;99.90;;;;;;5068885;28;20439;-63
2022/04/22 00:45:24;;;;;;;33.90;23.10;;;8.70;99.90;;;;;;5065663;28;20612;-64
2022/04/22 00:47:50;;;;;;;36.90;23.47;;;8.60;99.90;;;;;;5069174;28;20526;-64
2022/04/22 00:50:16;;;;;;;33.93;23.57;;;8.50;99.90;;;;;;5068212;28;20527;-64
2022/04/22 00:52:42;;;;;;;34.17;24.63;;;8.40;99.90;;;;;;5069785;28;20427;-64
2022/04/22 00:55:09;;;;;;;34.63;24.97;;;8.30;99.90;;;;;;5068729;28;20542;-64
2022/04/22 00:57:35;;;;;;;34.67;23.40;;;8.30;99.90;;;;;;5069143;28;20189;-65
2022/04/22 01:00:02;;;;;;;35.60;25.00;;;8.30;99.90;;;;;;5068629;28;20450;-64
2022/04/22 01:02:28;;;;;;;35.70;25.20;;;8.30;99.90;;;;;;5069050;28;20452;-64
2022/04/22 01:10:22;;;;;;;38.50;24.50;;;8.10;99.90;;;;;;5065372;28;20451;-63
2022/04/22 01:12:48;;;;;;;40.53;26.10;;;8.10;99.90;;;;;;5068607;28;20432;-64
2022/04/22 01:15:13;;;;;;;38.40;26.20;;;8.10;99.90;;;;;;5068787;28;20611;-64
2022/04/22 01:17:39;;;;;;;37.00;24.50;;;8.00;99.90;;;;;;5067448;28;20974;-64
2022/04/22 01:20:06;;;;;;;41.17;26.00;;;8.00;99.90;;;;;;5069408;28;20624;-64
2022/04/22 01:22:31;;;;;;;40.07;24.97;;;8.00;99.90;;;;;;5068354;28;20448;-64
2022/04/22 01:24:59;;;;;;;37.77;26.60;;;8.00;99.90;;;;;;5069267;28;20516;-64
2022/04/22 01:27:29;;;;;;;38.67;25.80;;;7.90;99.90;;;;;;5066910;28;20223;-64
2022/04/22 01:29:55;;;;;;;39.80;26.37;;;7.90;99.90;;;;;;5055664;28;20524;-60
2022/04/22 01:32:21;;;;;;;37.13;25.67;;;7.90;99.90;;;;;;5068521;28;21183;-64
2022/04/22 01:34:46;;;;;;;36.63;25.77;;;7.80;99.90;;;;;;5069293;28;20423;-64
2022/04/22 01:37:12;;;;;;;40.13;24.37;;;7.80;99.90;;;;;;5067794;28;20182;-64
2022/04/22 01:39:37;;;;;;;38.97;26.70;;;7.80;99.90;;;;;;5069206;28;20193;-64
2022/04/22 01:42:05;;;;;;;40.27;26.10;;;7.70;99.90;;;;;;5067916;28;20238;-64
2022/04/22 01:44:30;;;;;;;41.50;27.50;;;7.70;99.90;;;;;;5067994;28;20221;-59
2022/04/22 01:46:56;;;;;;;41.10;26.83;;;7.70;99.90;;;;;;5067604;28;20487;-60
2022/04/22 01:49:21;;;;;;;43.40;27.23;;;7.70;99.90;;;;;;5068743;28;20186;-64
2022/04/22 01:51:47;;;;;;;41.43;28.27;;;7.60;99.90;;;;;;5068241;28;20261;-64
2022/04/22 01:54:13;;;;;;;41.47;28.20;;;7.50;99.90;;;;;;5068758;28;20259;-64
2022/04/22 01:56:39;;;;;;;41.67;27.80;;;7.50;99.90;;;;;;5066828;28;20185;-56
2022/04/22 01:59:04;;;;;;;43.30;28.00;;;7.50;99.90;;;;;;5055690;28;20435;-64
2022/04/22 02:01:30;;;;;;;41.87;27.03;;;7.50;99.90;;;;;;5067614;28;20198;-64
2022/04/22 02:03:55;;;;;;;41.00;27.47;;;7.40;99.90;;;;;;5067306;28;20256;-64
2022/04/22 02:06:21;;;;;;;41.00;28.13;;;7.40;99.90;;;;;;5067408;28;20959;-64
2022/04/22 02:08:47;;;;;;;40.97;26.60;;;7.40;99.90;;;;;;5068036;28;20189;-64
2022/04/22 02:11:13;;;;;;;41.63;27.47;;;7.30;99.90;;;;;;5067474;28;20630;-64
2022/04/22 02:13:38;;;;;;;45.27;28.90;;;7.30;99.90;;;;;;5068262;28;20473;-64
2022/04/22 02:16:06;;;;;;;46.67;28.47;;;7.20;99.90;;;;;;5068945;28;20937;-64
2022/04/22 02:18:36;;;;;;;43.13;27.73;;;7.20;99.90;;;;;;5067301;28;20182;-64
2022/04/22 02:21:05;;;;;;;46.50;30.73;;;7.20;99.90;;;;;;5076313;28;20434;-65
2022/04/22 02:23:31;;;;;;;45.83;28.30;;;7.10;99.90;;;;;;5067976;28;20439;-65
2022/04/22 02:25:56;;;;;;;44.53;28.07;;;7.10;99.90;;;;;;5068768;28;20386;-64
2022/04/22 02:28:34;;;;;;;45.30;28.00;;;7.00;99.90;;;;;;5066321;28;20182;-61
2022/04/22 02:31:07;;;;;;;42.43;28.10;;;7.00;99.90;;;;;;5068559;28;20182;-64
2022/04/22 02:33:34;;;;;;;44.70;29.27;;;7.00;99.90;;;;;;5067722;28;20493;-65
2022/04/22 02:36:00;;;;;;;45.97;28.70;;;7.00;99.90;;;;;;5068667;28;20450;-64
2022/04/22 02:38:30;;;;;;;46.10;29.97;;;7.00;99.90;;;;;;5067232;28;20467;-65
2022/04/22 02:46:27;;;;;;;41.97;27.50;;;6.90;99.90;;;;;;5068198;28;20542;-64
2022/04/22 02:48:59;;;;;;;45.53;28.05;;;6.90;99.90;;;;;;5066934;28;20439;-65
2022/04/22 02:51:25;;;;;;;42.60;27.33;;;6.90;99.90;;;;;;5068389;28;20573;-65
2022/04/22 02:53:52;;;;;;;44.60;28.25;;;6.90;99.90;;;;;;5067519;28;20286;-65
2022/04/22 02:56:19;;;;;;;46.60;29.23;;;6.90;99.90;;;;;;5068611;28;20190;-64
2022/04/22 02:58:45;;;;;;;47.42;30.08;;;6.80;99.90;;;;;;5065953;28;20178;-65
2022/04/22 03:01:10;;;;;;;44.43;28.40;;;6.80;99.90;;;;;;5069065;28;20643;-64
2022/04/22 03:03:36;;;;;;;43.13;29.03;;;6.80;99.90;;;;;;5071163;28;20497;-64
2022/04/22 03:06:03;;;;;;;43.97;27.37;;;6.80;99.90;;;;;;5071664;28;20186;-65
2022/04/22 03:08:29;;;;;;;46.73;29.23;;;6.70;99.90;;;;;;5070616;28;20509;-65
2022/04/22 03:10:55;;;;;;;46.07;29.33;;;6.80;99.90;;;;;;5069890;28;20440;-61
2022/04/22 03:13:20;;;;;;;43.75;28.58;;;6.70;99.90;;;;;;5069714;28;20220;-65
2022/04/22 03:15:47;;;;;;;45.57;28.50;;;6.50;99.90;;;;;;5071802;28;20506;-65
2022/04/22 03:18:12;;;;;;;43.17;27.98;;;6.50;99.90;;;;;;5070314;28;20687;-63
2022/04/22 03:20:38;;;;;;;46.00;29.17;;;6.40;99.90;;;;;;5070812;28;20256;-64
2022/04/22 03:23:04;;;;;;;45.57;27.90;;;6.40;99.90;;;;;;5071033;28;20792;-64
2022/04/22 03:25:30;;;;;;;45.63;28.50;;;6.30;99.90;;;;;;5071859;28;20650;-65
2022/04/22 03:27:55;;;;;;;43.30;27.70;;;6.30;99.90;;;;;;5069227;28;20444;-64
2022/04/22 03:30:21;;;;;;;41.27;27.57;;;6.20;99.90;;;;;;5071471;28;20194;-64
2022/04/22 03:32:47;;;;;;;40.50;27.00;;;6.10;99.90;;;;;;5070842;28;20538;-62
2022/04/22 03:35:12;;;;;;;39.17;25.30;;;6.10;99.90;;;;;;5070156;28;20672;-64
2022/04/22 03:37:38;;;;;;;41.27;25.90;;;6.10;99.90;;;;;;5070206;28;20213;-65
2022/04/22 03:40:05;;;;;;;41.20;26.00;;;6.00;99.90;;;;;;5071261;28;20282;-64
2022/04/22 03:42:32;;;;;;;39.05;24.17;;;5.90;99.90;;;;;;5067878;28;20193;-64
2022/04/22 03:44:57;;;;;;;37.70;23.38;;;5.90;99.90;;;;;;5071075;28;20209;-64
2022/04/22 03:47:23;;;;;;;38.40;22.00;;;5.80;99.90;;;;;;5070228;28;20193;-64
2022/04/22 03:49:49;;;;;;;38.30;22.77;;;5.70;99.90;;;;;;5071158;28;20189;-64
2022/04/22 03:52:14;;;;;;;28.17;20.90;;;5.70;99.90;;;;;;5070401;28;20196;-64
2022/04/22 03:54:40;;;;;;;35.03;23.23;;;5.70;99.90;;;;;;5070826;28;20707;-64
2022/04/22 03:59:50;;;;;;;30.98;20.95;;;5.70;99.90;;;;;;5068710;28;20208;-65
2022/04/22 04:02:15;;;;;;;33.60;21.73;;;5.60;99.90;;;;;;5070011;28;20185;-64
2022/04/22 04:04:41;;;;;;;37.53;24.13;;;5.60;99.90;;;;;;5070042;28;20611;-64
2022/04/22 04:07:06;;;;;;;32.73;22.93;;;5.60;99.90;;;;;;5070047;28;20197;-65
2022/04/22 04:17:44;;;;;;;30.08;17.60;;;5.30;99.90;;;;;;5069963;28;20274;-64
2022/04/22 04:25:39;;;;;;;31.38;20.50;;;5.10;99.90;;;;;;5060880;28;20290;-63
2022/04/22 04:28:09;;;;;;;29.27;19.92;;;5.10;99.90;;;;;;5061875;28;20173;-64
2022/04/22 04:30:38;;;;;;;30.73;18.48;;;5.10;99.90;;;;;;5060317;28;20749;-65
2022/04/22 04:33:08;;;;;;;31.02;19.15;;;5.10;99.90;;;;;;5061739;28;20181;-65
2022/04/22 04:35:35;;;;;;;29.35;19.35;;;5.10;99.90;;;;;;5061110;28;20190;-64
2022/04/22 04:38:01;;;;;;;31.23;18.65;;;5.00;99.90;;;;;;5059751;28;20185;-65
2022/04/22 04:40:27;;;;;;;32.65;17.95;;;5.00;99.90;;;;;;5062564;28;20202;-65
2022/04/22 04:42:53;;;;;;;44.93;18.30;;;4.90;99.90;;;;;;5069224;28;20231;-64
2022/04/22 04:45:20;;;;;;;31.48;18.50;;;4.80;99.90;;;;;;5070084;28;20209;-65
2022/04/22 04:47:46;;;;;;;59.47;19.13;;;4.70;99.90;;;;;;5070222;28;20182;-65
2022/04/22 04:50:12;;;;;;;33.45;18.20;;;4.70;99.90;;;;;;5069053;28;20185;-64
2022/04/22 04:52:39;;;;;;;48.60;19.30;;;4.70;99.90;;;;;;5067719;28;20190;-64
2022/04/22 04:55:09;;;;;;;26.20;18.20;;;4.70;99.90;;;;;;5069936;28;20256;-64
2022/04/22 04:57:35;;;;;;;28.98;19.08;;;4.70;99.90;;;;;;5069764;28;20696;-62
2022/04/22 05:00:02;;;;;;;50.33;18.13;;;4.90;99.90;;;;;;5069400;28;20194;-65
2022/04/22 05:02:28;;;;;;;58.58;19.67;;;4.90;99.90;;;;;;5069626;28;20419;-65
2022/04/22 05:04:53;;;;;;;69.80;20.07;;;4.80;99.90;;;;;;5069641;28;20675;-64
2022/04/22 05:07:20;;;;;;;41.90;20.20;;;4.70;99.90;;;;;;5069489;28;20716;-64
2022/04/22 05:09:46;;;;;;;135.23;23.52;;;4.70;99.90;;;;;;5069652;28;20169;-65
2022/04/22 05:12:11;;;;;;;61.07;20.27;;;4.80;99.90;;;;;;5069705;28;20203;-65
2022/04/22 05:14:37;;;;;;;61.10;21.30;;;4.80;99.90;;;;;;5067949;28;20216;-65
2022/04/22 05:17:03;;;;;;;41.17;22.38;;;4.90;99.90;;;;;;5068202;28;20975;-65
2022/04/22 05:19:28;;;;;;;39.90;20.30;;;5.00;99.90;;;;;;5066356;28;20234;-65
2022/04/22 05:21:55;;;;;;;37.13;20.30;;;5.20;99.90;;;;;;5069240;28;20234;-64
2022/04/22 05:24:21;;;;;;;37.78;21.63;;;5.40;99.90;;;;;;5068560;28;20209;-65
2022/04/22 05:26:46;;;;;;;40.80;22.57;;;5.50;99.90;;;;;;5067617;28;20196;-65
2022/04/22 05:34:40;;;;;;;37.75;22.42;;;5.80;99.90;;;;;;5064468;28;20238;-64
2022/04/22 05:37:06;;;;;;;36.80;23.13;;;5.90;99.90;;;;;;5067281;28;20197;-65
2022/04/22 05:39:32;;;;;;;41.37;26.60;;;6.10;99.90;;;;;;5067901;28;20586;-64
2022/04/22 05:42:00;;;;;;;38.30;23.00;;;6.30;99.90;;;;;;5067304;28;20428;-65
2022/04/22 05:44:26;;;;;;;35.55;22.45;;;6.40;99.90;;;;;;5067801;28;20202;-64
2022/04/22 05:46:51;;;;;;;34.73;22.53;;;6.50;99.90;;;;;;5068981;28;20265;-65
2022/04/22 05:49:18;;;;;;;37.80;23.47;;;6.70;99.90;;;;;;5069080;28;20190;-64
2022/04/22 05:51:43;;;;;;;36.37;23.37;;;6.90;99.90;;;;;;5067558;28;20186;-64
2022/04/22 05:54:09;;;;;;;37.63;23.20;;;7.00;99.90;;;;;;5069501;28;20477;-64
2022/04/22 05:56:34;;;;;;;30.10;20.43;;;7.10;99.90;;;;;;5070462;28;20188;-65
2022/04/22 05:59:00;;;;;;;35.20;22.80;;;7.20;99.90;;;;;;5070577;28;20185;-64
2022/04/22 06:01:25;;;;;;;36.97;23.47;;;7.10;99.90;;;;;;5070833;28;20242;-53
2022/04/22 06:03:51;;;;;;;32.23;22.30;;;7.20;99.90;;;;;;5069938;28;20210;-64
2022/04/22 06:06:16;;;;;;;35.43;22.77;;;7.20;99.90;;;;;;5069766;28;20198;-64
2022/04/22 06:11:25;;;;;;;32.80;21.57;;;7.40;99.90;;;;;;5070702;28;20196;-64
2022/04/22 06:13:51;;;;;;;35.30;22.17;;;7.70;99.90;;;;;;5070558;28;21062;-60
2022/04/22 06:16:16;;;;;;;37.03;22.63;;;7.80;99.90;;;;;;5070683;28;20189;-64
2022/04/22 06:18:42;;;;;;;36.23;23.03;;;7.90;99.90;;;;;;5070560;28;20185;-64
2022/04/22 06:21:07;;;;;;;34.10;22.50;;;8.00;99.90;;;;;;5070563;28;20182;-63
2022/04/22 06:23:34;;;;;;;34.10;22.80;;;8.10;99.90;;;;;;5070350;28;20235;-64
2022/04/22 06:26:00;;;;;;;36.90;24.60;;;8.20;99.90;;;;;;5068927;28;20178;-64
2022/04/22 06:28:25;;;;;;;28.57;21.10;;;8.30;99.90;;;;;;5065326;28;20447;-63
2022/04/22 06:30:51;;;;;;;28.03;20.93;;;8.50;99.90;;;;;;5070455;28;20178;-62
2022/04/22 06:33:18;;;;;;;34.53;23.63;;;8.60;99.90;;;;;;5070131;28;20186;-64
2022/04/22 06:35:44;;;;;;;32.60;20.57;;;8.80;99.90;;;;;;5070786;28;20906;-64
2022/04/22 06:38:14;;;;;;;32.70;24.17;;;9.00;99.90;;;;;;5074236;28;20505;-64
2022/04/22 06:46:09;;;;;;;33.40;23.43;;;9.20;99.90;;;;;;5073677;28;20427;-64
2022/04/22 06:48:35;;;;;;;34.90;23.10;;;9.00;99.90;;;;;;5072440;28;20446;-61
2022/04/22 06:51:03;;;;;;;34.70;23.50;;;9.10;99.90;;;;;;5072056;28;20505;-63
2022/04/22 06:53:29;;;;;;;35.30;23.83;;;9.10;99.90;;;;;;5072369;28;20514;-64
2022/04/22 06:56:00;;;;;;;34.97;24.03;;;9.10;99.90;;;;;;5068418;28;20448;-64
2022/04/22 06:58:26;;;;;;;37.07;24.33;;;9.10;99.90;;;;;;5072240;28;20181;-63
2022/04/22 07:00:52;;;;;;;34.07;23.33;;;9.30;99.90;;;;;;5072200;28;20443;-64
2022/04/22 07:03:18;;;;;;;34.77;23.00;;;9.20;99.90;;;;;;5072360;28;20451;-64
2022/04/22 07:05:46;;;;;;;34.30;23.57;;;9.30;99.90;;;;;;5065964;28;20475;-64
2022/04/22 07:08:14;;;;;;;33.37;23.63;;;9.60;99.90;;;;;;5067419;28;20454;-66
2022/04/22 07:10:44;;;;;;;32.00;23.00;;;9.70;99.90;;;;;;5069140;28;20914;-66
2022/04/22 07:13:10;;;;;;;34.63;23.83;;;9.70;99.90;;;;;;5070559;28;20440;-55
2022/04/22 07:15:38;;;;;;;30.93;22.90;;;9.90;99.90;;;;;;5070817;28;20449;-65
2022/04/22 07:18:04;;;;;;;34.37;24.30;;;10.00;99.90;;;;;;5071235;28;20514;-65
2022/04/22 07:20:30;;;;;;;30.43;23.20;;;10.20;99.90;;;;;;5070698;28;21094;-66
2022/04/22 07:22:59;;;;;;;32.73;23.40;;;10.40;99.90;;;;;;5070929;28;20424;-66
2022/04/22 07:25:25;;;;;;;33.87;24.40;;;10.60;99.90;;;;;;5070636;28;20205;-63
2022/04/22 07:27:51;;;;;;;34.40;23.30;;;10.90;99.90;;;;;;5070928;28;20913;-66
2022/04/22 07:30:18;;;;;;;31.27;23.57;;;10.80;99.90;;;;;;5070986;28;20434;-65
2022/04/22 07:32:46;;;;;;;31.03;24.23;;;10.70;99.90;;;;;;5070768;28;20212;-66
2022/04/22 07:35:12;;;;;;;31.47;22.67;;;10.70;99.90;;;;;;5069428;28;20448;-65
2022/04/22 07:37:39;;;;;;;31.80;22.90;;;10.60;99.90;;;;;;5070768;28;20424;-65
2022/04/22 07:40:06;;;;;;;32.03;23.67;;;10.70;99.90;;;;;;5070443;28;20435;-65
2022/04/22 07:42:34;;;;;;;30.53;22.50;;;10.80;99.90;;;;;;5070604;28;20424;-65
2022/04/22 07:47:49;;;;;;;33.63;23.70;;;10.70;99.90;;;;;;5070474;28;20445;-66
2022/04/22 07:50:16;;;;;;;34.57;24.07;;;10.50;99.90;;;;;;5070829;28;20424;-65
2022/04/22 07:52:45;;;;;;;34.90;24.07;;;10.60;99.90;;;;;;5070775;28;20450;-66
2022/04/22 07:55:12;;;;;;;32.37;23.70;;;10.60;99.90;;;;;;5070215;28;21282;-65
2022/04/22 07:57:40;;;;;;;34.57;25.10;;;10.60;99.90;;;;;;5070150;28;20424;-66
2022/04/22 08:00:07;;;;;;;36.23;24.53;;;10.60;99.90;;;;;;5070607;28;21133;-66
2022/04/22 08:02:33;;;;;;;33.53;23.70;;;10.60;99.90;;;;;;5070476;28;20431;-66
2022/04/22 08:04:59;;;;;;;34.03;24.77;;;10.60;99.90;;;;;;5069654;28;20471;-65
2022/04/22 08:07:25;;;;;;;31.40;23.03;;;10.60;99.90;;;;;;5069880;28;20428;-65
2022/04/22 08:09:51;;;;;;;32.27;24.73;;;10.80;99.90;;;;;;5070317;28;20498;-65
2022/04/22 08:12:19;;;;;;;35.07;25.43;;;11.00;99.90;;;;;;5069850;28;20299;-66
2022/04/22 08:14:45;;;;;;;33.87;24.60;;;11.20;99.90;;;;;;5069484;28;20463;-66
2022/04/22 08:17:11;;;;;;;32.60;23.87;;;11.20;99.90;;;;;;5070207;28;20423;-64
2022/04/22 08:19:36;;;;;;;32.50;24.47;;;11.30;99.90;;;;;;5070114;28;20423;-65
2022/04/22 08:22:02;;;;;;;29.47;23.17;;;11.30;99.90;;;;;;5070028;28;20185;-65
2022/04/22 08:24:28;;;;;;;33.00;25.20;;;11.40;99.90;;;;;;5069856;28;20209;-65
2022/04/22 08:26:55;;;;;;;31.20;24.63;;;11.50;99.90;;;;;;5069794;28;20658;-65
2022/04/22 08:29:21;;;;;;;35.17;25.00;;;11.60;99.90;;;;;;5069928;28;20190;-65
2022/04/22 08:31:47;;;;;;;32.57;24.00;;;11.70;99.90;;;;;;5070043;28;20426;-65
2022/04/22 08:34:12;;;;;;;32.47;23.47;;;11.90;99.90;;;;;;5069854;28;20419;-65
2022/04/22 08:36:38;;;;;;;29.73;23.57;;;12.20;99.90;;;;;;5067934;28;20185;-65
2022/04/22 08:39:05;;;;;;;29.80;23.80;;;12.50;99.90;;;;;;5069678;28;20268;-62
2022/04/22 08:41:34;;;;;;;30.90;23.30;;;12.80;99.90;;;;;;5069375;28;20805;-64
2022/04/22 08:44:01;;;;;;;30.97;23.73;;;13.10;99.90;;;;;;5067909;28;20483;-64
2022/04/22 08:51:56;;;;;;;30.37;25.00;;;14.40;99.90;;;;;;5069200;28;20431;-63
2022/04/22 08:54:22;;;;;;;29.40;23.70;;;14.90;99.90;;;;;;5069256;28;20797;-64
2022/04/22 08:56:50;;;;;;;30.00;25.50;;;15.50;99.90;;;;;;5069380;28;20421;-57
2022/04/22 08:59:16;;;;;;;25.60;22.90;;;16.10;99.90;;;;;;5066902;28;20193;-66
2022/04/22 09:01:42;;;;;;;25.17;22.57;;;16.70;99.90;;;;;;5069008;28;20967;-66
2022/04/22 09:04:07;;;;;;;27.67;24.00;;;17.10;95.60;;;;;;5068918;28;20488;-65
2022/04/22 09:06:34;;;;;;;26.90;24.10;;;17.70;95.00;;;;;;5069027;28;20699;-56
2022/04/22 09:08:59;;;;;;;26.57;23.77;;;18.30;94.20;;;;;;5069011;28;20193;-63
2022/04/22 09:11:25;;;;;;;26.60;23.90;;;19.00;90.80;;;;;;5068805;28;21090;-58
2022/04/22 09:13:51;;;;;;;26.93;24.13;;;19.50;90.30;;;;;;5068906;28;20224;-64
2022/04/22 09:16:21;;;;;;;26.10;23.40;;;19.50;81.80;;;;;;5068897;28;20760;-64
2022/04/22 09:18:46;;;;;;;27.40;24.60;;;20.00;83.40;;;;;;5067454;28;20182;-64
2022/04/22 09:21:18;;;;;;;26.90;24.10;;;20.70;81.20;;;;;;5068723;28;20885;-64
2022/04/22 09:23:48;;;;;;;25.73;23.13;;;20.90;78.90;;;;;;5068876;28;20194;-62
2022/04/22 09:26:22;;;;;;;23.10;20.90;;;21.50;78.20;;;;;;5068633;28;20473;-62
2022/04/22 09:29:02;;;;;;;22.03;20.03;;;22.00;70.50;;;;;;5067753;28;20410;-62
2022/04/22 09:31:28;;;;;;;22.57;20.50;;;22.60;68.70;;;;;;5068429;28;20415;-62
2022/04/22 09:33:55;;;;;;;21.10;19.20;;;22.90;61.00;;;;;;5068057;28;20502;-63
2022/04/22 09:44:57;;;;;;;20.87;19.03;;;24.30;52.90;;;;;;5068511;28;20511;-62
2022/04/22 09:47:27;;;;;;;20.50;18.80;;;24.60;52.80;;;;;;5069096;28;20534;-61
2022/04/22 09:49:54;;;;;;;20.60;18.80;;;24.50;53.80;;;;;;5068520;28;20460;-63
2022/04/22 09:52:30;;;;;;;20.60;18.80;;;24.80;51.90;;;;;;5067939;28;20423;-63
2022/04/22 09:54:58;;;;;;;22.70;20.77;;;24.90;51.70;;;;;;5067974;28;20537;-63
2022/04/22 09:57:24;;;;;;;21.60;19.70;;;25.40;52.80;;;;;;5068006;28;20421;-63
2022/04/22 09:59:51;;;;;;;21.33;19.53;;;25.90;48.10;;;;;;5067190;28;20450;-63
2022/04/22 10:02:25;;;;;;;19.60;18.00;;;25.80;47.10;;;;;;5068228;28;20417;-63
2022/04/22 10:04:54;;;;;;;20.67;18.87;;;25.60;45.90;;;;;;5067766;28;20986;-63
2022/04/22 10:07:23;;;;;;;23.80;21.77;;;25.70;46.00;;;;;;5068902;28;20454;-63
2022/04/22 10:09:53;;;;;;;24.60;22.43;;;25.60;49.20;;;;;;5068257;28;20908;-61
2022/04/22 10:12:21;;;;;;;21.67;19.77;;;25.50;47.00;;;;;;5072423;28;20415;-63
2022/04/22 10:14:50;;;;;;;21.93;20.07;;;25.40;44.60;;;;;;5071271;28;20457;-62
2022/04/22 10:17:17;;;;;;;18.00;16.50;;;25.40;47.40;;;;;;5072279;28;20437;-63
2022/04/22 10:19:43;;;;;;;19.13;17.57;;;25.80;43.60;;;;;;5072210;28;20934;-63
2022/04/22 10:22:10;;;;;;;19.57;18.00;;;25.80;44.00;;;;;;5072331;28;20429;-63
2022/04/22 10:24:36;;;;;;;20.10;18.43;;;25.90;41.30;;;;;;5072158;28;20815;-64
2022/04/22 10:27:03;;;;;;;19.77;18.07;;;25.50;41.60;;;;;;5072039;28;20422;-63
2022/04/22 10:29:30;;;;;;;18.97;17.47;;;25.40;44.30;;;;;;5072157;28;20179;-63
2022/04/22 10:31:56;;;;;;;21.03;19.23;;;25.30;42.60;;;;;;5072226;28;20426;-63
2022/04/22 10:34:39;;;;;;;22.27;20.40;;;24.90;44.60;;;;;;5072094;28;20510;-63
2022/04/22 10:37:18;;;;;;;23.73;21.63;;;24.50;44.10;;;;;;5072462;28;20465;-64
2022/04/22 10:39:52;;;;;;;23.33;21.27;;;23.90;47.90;;;;;;5071858;28;20456;-64
2022/04/22 10:42:18;;;;;;;25.60;23.40;;;24.10;47.90;;;;;;5071893;28;20735;-64
2022/04/22 10:47:58;;;;;;;26.83;24.50;;;24.40;47.50;;;;;;5072075;28;20268;-59
2022/04/22 10:50:25;;;;;;;27.40;25.10;;;24.10;48.30;;;;;;5060810;28;20451;-63
2022/04/22 10:53:03;;;;;;;26.27;23.97;;;24.20;49.40;;;;;;5071416;28;20426;-64
2022/04/22 10:55:39;;;;;;;24.97;22.77;;;24.50;49.20;;;;;;5071722;28;20428;-62
2022/04/22 10:58:14;;;;;;;27.07;24.77;;;25.20;48.70;;;;;;5072011;28;20475;-62
2022/04/22 11:00:43;;;;;;;26.07;23.87;;;25.20;48.10;;;;;;5070567;28;20498;-63
2022/04/22 11:03:13;;;;;;;26.90;24.57;;;24.80;48.50;;;;;;5071086;28;20917;-64
2022/04/22 11:06:01;;;;;;;22.57;20.57;;;24.40;48.50;;;;;;5071515;28;20477;-64
2022/04/22 11:08:37;;;;;;;23.30;21.30;;;24.10;46.70;;;;;;5071450;28;20478;-63
2022/04/22 11:11:15;;;;;;;26.10;23.90;;;23.70;45.60;;;;;;5071521;28;20435;-63
2022/04/22 11:13:46;;;;;;;22.97;20.97;;;23.20;48.30;;;;;;5070474;28;21124;-63
2022/04/22 11:16:32;;;;;;;23.57;21.30;;;23.50;49.50;;;;;;5071366;28;20785;-63
2022/04/22 11:19:17;;;;;;;22.60;20.70;;;23.80;48.30;;;;;;5071360;28;20883;-63
2022/04/22 11:21:43;;;;;;;22.87;20.90;;;24.20;47.20;;;;;;5070417;28;20454;-63
2022/04/22 11:24:14;;;;;;;22.00;20.20;;;24.70;47.20;;;;;;5069448;28;20671;-63
2022/04/22 11:26:40;;;;;;;22.07;20.17;;;25.20;46.70;;;;;;5070966;28;20420;-64
2022/04/22 11:29:10;;;;;;;24.67;22.47;;;24.70;44.80;;;;;;5071050;28;20418;-59
2022/04/22 11:31:36;;;;;;;23.03;21.07;;;23.40;46.30;;;;;;5070357;28;20418;-64
2022/04/22 11:34:08;;;;;;;22.60;20.70;;;22.90;49.00;;;;;;5069352;28;20420;-63
2022/04/22 11:36:47;;;;;;;22.97;20.77;;;22.30;49.10;;;;;;5068303;28;20419;-64
2022/04/22 11:39:21;;;;;;;21.33;19.27;;;21.20;51.50;;;;;;5068184;28;20432;-64
2022/04/22 11:41:57;;;;;;;21.80;19.80;;;20.60;53.40;;;;;;5070293;28;20425;-64
2022/04/22 11:44:27;;;;;;;22.90;20.80;;;20.20;54.50;;;;;;5068085;28;20468;-66
2022/04/22 11:46:53;;;;;;;23.20;21.10;;;20.00;56.50;;;;;;5065059;28;20428;-64
2022/04/22 11:49:28;;;;;;;22.20;20.00;;;19.80;57.40;;;;;;5068506;28;20445;-64
2022/04/22 11:51:54;;;;;;;21.07;19.10;;;19.80;58.10;;;;;;5067816;28;20519;-64
2022/04/22 11:54:26;;;;;;;22.67;20.47;;;19.60;59.10;;;;;;5068308;28;20475;-64
2022/04/22 11:56:53;;;;;;;22.10;19.97;;;19.70;58.90;;;;;;5067676;28;20408;-62
2022/04/22 11:59:19;;;;;;;21.10;19.07;;;19.40;59.20;;;;;;5069917;28;21288;-65
2022/04/22 12:10:03;;;;;;;19.70;18.03;;;18.30;60.80;;;;;;5068283;28;20469;-65
2022/04/22 12:12:31;;;;;;;17.80;16.20;;;18.30;61.90;;;;;;5069239;28;20452;-63
2022/04/22 12:15:07;;;;;;;20.63;18.17;;;18.20;63.60;;;;;;5068808;28;20449;-65
2022/04/22 12:17:32;;;;;;;18.90;17.20;;;18.10;62.60;;;;;;5070156;28;20443;-64
2022/04/22 12:19:58;;;;;;;19.17;17.37;;;18.10;64.60;;;;;;5069758;28;20500;-63
2022/04/22 12:22:25;;;;;;;20.67;18.80;;;18.00;65.70;;;;;;5069311;28;20189;-63
2022/04/22 12:25:10;;;;;;;19.03;17.33;;;17.80;67.10;;;;;;5068600;28;20976;-59
2022/04/22 12:27:36;;;;;;;18.70;17.00;;;17.70;68.90;;;;;;5068891;28;20432;-59
2022/04/22 12:30:11;;;;;;;19.67;17.87;;;17.70;70.10;;;;;;5069362;28;20504;-64
2022/04/22 12:32:40;;;;;;;18.03;16.43;;;17.60;69.20;;;;;;5069707;28;20457;-64
2022/04/22 12:35:17;;;;;;;18.30;16.60;;;17.40;70.00;;;;;;5068892;28;20423;-64
2022/04/22 12:37:50;;;;;;;18.40;16.70;;;17.30;70.70;;;;;;5069879;28;20789;-64
2022/04/22 12:40:16;;;;;;;17.93;16.30;;;17.10;72.10;;;;;;5069558;28;20415;-64
2022/04/22 12:42:42;;;;;;;17.43;15.90;;;17.00;72.00;;;;;;5068570;28;21140;-63
2022/04/22 12:53:50;;;;;;;16.10;14.60;;;16.70;72.30;;;;;;5069106;28;20626;-64
2022/04/22 12:56:15;;;;;;;15.97;14.47;;;16.70;72.10;;;;;;5067346;28;20465;-64
2022/04/22 12:59:01;;;;;;;14.40;12.83;;;16.90;73.20;;;;;;5067474;28;20443;-63
2022/04/22 13:01:37;;;;;;;15.67;14.27;;;16.90;72.40;;;;;;5069162;28;20419;-63
2022/04/22 13:04:07;;;;;;;16.10;14.70;;;17.10;72.40;;;;;;5068022;28;20462;-63
2022/04/22 13:06:43;;;;;;;18.10;16.33;;;17.30;70.80;;;;;;5067472;28;20431;-65
2022/04/22 13:09:10;;;;;;;19.57;17.67;;;17.30;70.80;;;;;;5066349;28;20517;-65
2022/04/22 13:11:36;;;;;;;18.90;17.07;;;17.20;72.20;;;;;;5065595;28;21000;-65
2022/04/22 13:14:03;;;;;;;19.20;17.40;;;17.30;73.40;;;;;;5063132;28;20447;-64
2022/04/22 13:16:29;;;;;;;20.47;18.57;;;17.30;74.70;;;;;;5066539;28;20694;-65
2022/04/22 13:18:58;;;;;;;21.50;19.40;;;17.30;72.40;;;;;;5067084;28;20530;-66
2022/04/22 13:21:24;;;;;;;21.10;19.20;;;17.10;73.70;;;;;;5066368;28;20438;-66
2022/04/22 13:23:50;;;;;;;19.97;18.07;;;17.10;72.80;;;;;;5066449;28;20437;-65
2022/04/22 13:26:17;;;;;;;21.00;19.10;;;16.70;72.90;;;;;;5068508;28;20409;-66
2022/04/22 13:28:42;;;;;;;21.57;19.53;;;16.50;73.90;;;;;;5064285;28;20533;-66
2022/04/22 13:31:08;;;;;;;21.70;19.57;;;16.30;76.40;;;;;;5065600;28;20519;-65
2022/04/22 13:33:34;;;;;;;22.37;20.10;;;16.20;79.00;;;;;;5068841;28;20779;-66
2022/04/22 13:36:02;;;;;;;22.57;20.37;;;16.10;81.80;;;;;;5068359;28;20184;-66
2022/04/22 13:38:28;;;;;;;23.37;21.07;;;15.90;81.80;;;;;;5066565;28;20447;-65
2022/04/22 13:40:54;;;;;;;24.33;21.80;;;15.80;84.60;;;;;;5068426;28;20420;-61
2022/04/22 13:43:19;;;;;;;23.83;21.53;;;15.60;84.30;;;;;;5051584;28;21622;-66
2022/04/22 13:53:57;;;;;;;24.03;21.57;;;15.20;90.70;;;;;;5066489;28;20569;-65
2022/04/22 13:56:22;;;;;;;25.43;22.83;;;15.20;90.80;;;;;;5065466;28;20506;-67
2022/04/22 13:58:48;;;;;;;25.63;22.77;;;15.10;92.10;;;;;;5062823;28;20764;-68
2022/04/22 14:01:13;;;;;;;27.83;24.83;;;15.10;92.50;;;;;;5065900;28;20636;-67
2022/04/22 14:03:39;;;;;;;25.23;22.53;;;15.10;93.40;;;;;;5065924;28;20193;-66